Time;durP1;ratioP1;P1;durP2;ratioP2;P2;SDS_P1;SDS_P2;PMS_P1;PMS_P2;Temp;Humidity;BMP_temperature;BMP_pressure;BME280_temperature;BME280_humidity;BME280_pressure;Samples;Min_cycle;Max_cycle;Signal;HPM_P1;HPM_P2
2021/08/04 00:00:56;;;;;;;5.85;2.45;;;;;;;15.86;87.50;98838.70;4099828;85;21076;-81
2021/08/04 00:06:59;;;;;;;4.28;2.35;;;;;;;15.82;87.57;98836.59;4092672;85;21032;-80
2021/08/04 00:13:01;;;;;;;3.55;2.70;;;;;;;15.78;87.52;98828.35;4100986;85;21102;-81
2021/08/04 00:19:03;;;;;;;7.50;2.60;;;;;;;15.71;87.59;98818.00;4096413;85;21039;-81
2021/08/04 00:25:06;;;;;;;5.47;2.50;;;;;;;15.59;88.00;98822.86;4092079;85;21576;-81
2021/08/04 00:31:07;;;;;;;3.08;2.30;;;;;;;15.65;88.08;98826.73;4016425;86;21119;-81
2021/08/04 00:37:08;;;;;;;3.20;2.30;;;;;;;15.59;88.19;98811.83;4101011;84;21071;-81
2021/08/04 00:43:10;;;;;;;4.22;2.55;;;;;;;15.61;88.27;98812.17;4101595;85;21079;-81
2021/08/04 00:49:13;;;;;;;3.08;2.10;;;;;;;15.62;88.41;98806.86;4100428;85;21065;-80
2021/08/04 00:55:15;;;;;;;4.40;2.10;;;;;;;15.59;88.63;98813.21;4097291;85;21101;-81
2021/08/04 01:01:49;;;;;;;3.15;2.83;;;;;;;15.53;88.86;98812.07;4104693;85;21051;-82
2021/08/04 01:08:10;;;;;;;4.70;2.98;;;;;;;15.50;89.09;98802.48;4109035;85;21051;-82
2021/08/04 01:14:17;;;;;;;8.80;2.80;;;;;;;15.33;89.66;98796.55;4097377;85;21041;-81
2021/08/04 01:20:23;;;;;;;8.40;4.23;;;;;;;15.07;90.70;98791.67;4103661;85;21023;-83
2021/08/04 01:26:31;;;;;;;4.60;2.80;;;;;;;15.07;90.70;98791.67;4102552;85;21523;-81
2021/08/04 01:32:32;;;;;;;7.28;3.30;;;;;;;15.06;90.49;98775.75;4090745;85;21041;-80
2021/08/04 01:38:35;;;;;;;3.83;2.60;;;;;;;15.20;90.83;98769.30;4098242;85;21066;-80
2021/08/04 01:44:39;;;;;;;6.95;2.33;;;;;;;15.31;90.65;98767.20;4089895;85;21480;-81
2021/08/04 01:50:42;;;;;;;3.92;2.17;;;;;;;15.40;90.64;98769.69;4097825;85;21051;-80
2021/08/04 01:56:46;;;;;;;3.17;2.42;;;;;;;15.37;90.61;98776.59;4097115;85;21079;-84
2021/08/04 02:02:47;;;;;;;7.03;2.55;;;;;;;15.32;90.04;98778.41;4098613;85;21051;-80
2021/08/04 02:09:07;;;;;;;4.70;2.40;;;;;;;15.11;90.68;98826.91;4092795;85;21554;-81
2021/08/04 02:15:12;;;;;;;5.83;3.30;;;;;;;15.08;91.15;98845.03;4091980;84;21067;-80
2021/08/04 02:21:16;;;;;;;5.12;3.17;;;;;;;15.11;91.49;98826.29;4091452;85;21639;-80
2021/08/04 02:27:19;;;;;;;10.68;4.95;;;;;;;15.17;91.81;98824.67;4101328;84;21115;-80
2021/08/04 02:33:22;;;;;;;7.20;4.20;;;;;;;15.16;91.59;98825.09;4095809;85;21149;-84
2021/08/04 02:39:24;;;;;;;8.98;4.15;;;;;;;15.20;91.86;98828.58;4098478;85;21079;-81
2021/08/04 02:45:25;;;;;;;5.78;3.27;;;;;;;15.28;91.83;98822.59;4097996;85;21590;-81
2021/08/04 02:51:29;;;;;;;12.30;3.33;;;;;;;15.26;91.96;98819.45;4092754;85;22215;-81
2021/08/04 02:57:30;;;;;;;7.87;3.08;;;;;;;15.25;92.06;98827.52;4097642;85;21007;-81
2021/08/04 03:03:31;;;;;;;3.58;2.80;;;;;;;15.34;92.17;98830.60;4098139;85;21635;-80
2021/08/04 03:09:33;;;;;;;8.83;3.05;;;;;;;15.45;92.13;98823.61;4100439;85;21737;-81
2021/08/04 03:15:34;;;;;;;5.37;2.80;;;;;;;15.50;92.30;98818.41;4099708;85;21090;-80
2021/08/04 03:21:36;;;;;;;5.80;3.00;;;;;;;15.54;92.25;98819.77;4095309;85;21090;-81
2021/08/04 03:27:37;;;;;;;13.78;3.25;;;;;;;15.57;92.40;98814.21;4093059;85;21555;-80
2021/08/04 03:33:38;;;;;;;7.47;3.65;;;;;;;15.65;92.55;98814.91;4093798;85;21487;-80
2021/08/04 03:39:39;;;;;;;11.50;4.67;;;;;;;15.74;92.41;98824.08;4100174;85;21596;-81
2021/08/04 03:45:40;;;;;;;9.38;4.70;;;;;;;15.80;92.45;98825.97;4101067;85;21519;-80
2021/08/04 03:51:42;;;;;;;10.13;4.10;;;;;;;15.81;92.43;98826.14;4095773;85;21075;-83
2021/08/04 03:57:43;;;;;;;7.33;4.08;;;;;;;15.84;92.51;98825.91;4075269;85;45695;-81
2021/08/04 04:03:44;;;;;;;11.00;4.75;;;;;;;15.90;92.41;98829.77;4059654;86;21054;-81
2021/08/04 04:09:45;;;;;;;5.75;4.15;;;;;;;15.87;92.91;98831.39;4058845;86;21616;-80
2021/08/04 04:15:47;;;;;;;8.95;4.30;;;;;;;15.90;92.85;98825.63;4051547;86;21123;-84
2021/08/04 04:21:48;;;;;;;7.12;4.67;;;;;;;15.90;92.84;98821.48;4051296;86;21074;-81
2021/08/04 04:27:49;;;;;;;8.05;4.37;;;;;;;15.86;93.06;98827.08;4065173;86;21056;-82
2021/08/04 04:33:50;;;;;;;7.47;3.60;;;;;;;15.87;92.98;98826.45;4050768;86;21538;-82
2021/08/04 04:39:52;;;;;;;4.78;3.30;;;;;;;15.93;93.14;98835.87;4045447;85;21670;-83
2021/08/04 04:45:53;;;;;;;8.85;4.12;;;;;;;15.96;93.18;98838.56;4045002;85;21021;-81
2021/08/04 04:51:54;;;;;;;6.55;4.05;;;;;;;15.95;93.32;98838.97;4048149;86;21075;-81
2021/08/04 04:57:55;;;;;;;7.08;3.77;;;;;;;16.06;93.80;98841.79;4052196;86;21060;-81
2021/08/04 05:03:57;;;;;;;11.43;3.33;;;;;;;16.07;93.49;98844.72;4051368;86;21705;-81
2021/08/04 05:09:58;;;;;;;7.28;3.95;;;;;;;16.13;93.65;98849.20;4064849;86;21055;-81
2021/08/04 05:15:59;;;;;;;4.47;3.40;;;;;;;16.23;93.79;98859.30;4071418;86;21067;-81
2021/08/04 05:22:00;;;;;;;8.20;4.12;;;;;;;16.35;93.85;98849.86;3906736;89;21110;-83
2021/08/04 05:28:01;;;;;;;7.00;3.70;;;;;;;16.47;94.03;98858.22;3958873;88;21053;-81
2021/08/04 05:34:03;;;;;;;7.30;3.90;;;;;;;16.57;94.06;98871.86;3942271;88;21086;-81
2021/08/04 05:40:05;;;;;;;7.55;4.53;;;;;;;16.65;93.97;98863.66;3925624;87;21114;-81
2021/08/04 05:46:07;;;;;;;12.30;4.17;;;;;;;16.88;94.26;98856.00;4067886;85;21112;-80
2021/08/04 05:52:08;;;;;;;11.43;4.75;;;;;;;16.95;93.57;98833.16;4067322;86;21084;-80
2021/08/04 05:58:09;;;;;;;8.65;4.00;;;;;;;17.09;93.83;98855.63;4066427;86;21070;-80
2021/08/04 06:04:11;;;;;;;7.12;4.00;;;;;;;17.20;93.44;98850.70;4055690;86;21066;-81
2021/08/04 06:10:12;;;;;;;6.37;3.98;;;;;;;17.21;93.44;98845.36;4063854;86;21127;-81
2021/08/04 06:16:14;;;;;;;5.85;4.00;;;;;;;17.36;93.51;98841.13;4053852;86;21125;-81
2021/08/04 06:22:15;;;;;;;6.80;3.40;;;;;;;17.50;92.99;98840.09;4060070;86;21495;-81
2021/08/04 06:28:16;;;;;;;5.83;3.90;;;;;;;17.56;92.95;98851.64;4058807;86;21457;-80
2021/08/04 06:34:17;;;;;;;5.17;3.35;;;;;;;17.76;93.01;98853.81;4056163;86;21053;-81
2021/08/04 06:40:19;;;;;;;7.40;3.40;;;;;;;18.01;92.44;98859.63;4060875;86;21056;-83
2021/08/04 06:46:20;;;;;;;7.80;4.17;;;;;;;18.20;92.21;98860.80;4053277;86;21016;-83
2021/08/04 06:52:21;;;;;;;4.90;4.10;;;;;;;18.39;91.79;98857.25;4050204;86;21106;-81
2021/08/04 06:58:23;;;;;;;7.03;3.47;;;;;;;18.55;91.92;98852.54;4049702;86;21603;-81
2021/08/04 07:04:24;;;;;;;5.28;3.37;;;;;;;18.90;91.76;98856.47;4048865;86;21720;-81
2021/08/04 07:10:25;;;;;;;6.80;3.47;;;;;;;19.07;90.59;98856.63;4056666;86;21088;-82
2021/08/04 07:16:27;;;;;;;5.25;3.30;;;;;;;19.20;90.28;98854.69;4058894;86;21475;-81
2021/08/04 07:22:28;;;;;;;3.42;2.50;;;;;;;19.27;89.75;98846.80;4056054;86;21523;-81
2021/08/04 07:28:29;;;;;;;4.10;2.20;;;;;;;19.15;89.24;98854.45;4062095;86;21528;-80
2021/08/04 07:34:30;;;;;;;3.45;2.67;;;;;;;19.08;88.81;98857.39;4056954;86;21461;-81
2021/08/04 07:40:32;;;;;;;5.62;3.27;;;;;;;19.05;88.49;98861.03;4058875;86;22246;-80
2021/08/04 07:46:33;;;;;;;7.30;3.27;;;;;;;19.05;88.19;98860.44;4051809;86;21456;-80
2021/08/04 07:52:34;;;;;;;2.98;2.50;;;;;;;19.08;88.16;98862.94;4062182;86;21017;-81
2021/08/04 07:58:36;;;;;;;4.70;2.70;;;;;;;19.23;88.33;98857.98;4067097;86;21059;-81
2021/08/04 08:04:37;;;;;;;3.58;2.70;;;;;;;19.56;88.53;98858.75;4060260;85;21392;-81
2021/08/04 08:10:41;;;;;;;5.47;2.58;;;;;;;19.85;87.63;98853.36;4048860;86;21495;-81
2021/08/04 08:16:42;;;;;;;7.00;3.25;;;;;;;20.27;87.50;98849.97;4065826;86;21033;-81
2021/08/04 08:22:43;;;;;;;8.13;3.25;;;;;;;20.66;87.24;98841.20;4073314;86;21070;-80
2021/08/04 08:28:45;;;;;;;7.80;4.47;;;;;;;21.06;86.17;98840.92;4051285;86;21003;-81
2021/08/04 08:34:46;;;;;;;5.45;2.98;;;;;;;21.26;85.47;98842.81;4056074;86;21058;-81
2021/08/04 08:40:48;;;;;;;5.97;3.10;;;;;;;21.50;84.35;98858.50;4064856;86;22180;-81
2021/08/04 08:46:50;;;;;;;4.90;3.05;;;;;;;21.70;83.50;98854.80;4050755;86;21060;-81
2021/08/04 08:52:55;;;;;;;5.20;2.55;;;;;;;21.77;83.06;98839.23;4040991;86;21111;-81
2021/08/04 08:58:56;;;;;;;5.45;2.45;;;;;;;21.85;81.81;98836.98;4061215;86;21020;-81
2021/08/04 09:05:08;;;;;;;4.33;2.95;;;;;;;21.90;81.42;98825.23;4058970;86;21040;-81
2021/08/04 09:11:14;;;;;;;4.25;2.75;;;;;;;22.22;81.39;98818.64;4054483;86;21109;-82
2021/08/04 09:17:17;;;;;;;1.92;1.60;;;;;;;22.43;80.64;98823.98;4052540;86;21622;-82
2021/08/04 09:23:23;;;;;;;2.35;1.52;;;;;;;22.54;78.94;98825.16;4048340;86;21136;-81
2021/08/04 09:29:25;;;;;;;6.93;1.97;;;;;;;22.90;78.33;98821.70;4048558;86;21616;-82
2021/08/04 09:35:26;;;;;;;2.08;1.50;;;;;;;23.40;77.70;98825.38;4057223;86;21095;-82
2021/08/04 09:41:27;;;;;;;1.40;1.30;;;;;;;23.71;74.75;98828.79;4049697;86;21061;-81
2021/08/04 09:47:28;;;;;;;2.50;1.50;;;;;;;23.76;75.30;98820.42;4059978;86;21124;-81
2021/08/04 09:53:38;;;;;;;2.05;1.75;;;;;;;23.95;74.05;98818.52;4054806;86;21032;-82
2021/08/04 09:59:40;;;;;;;8.40;1.82;;;;;;;24.05;73.74;98818.70;4045872;86;21043;-82
2021/08/04 10:05:44;;;;;;;3.08;1.87;;;;;;;24.27;72.55;98815.68;4045846;86;21046;-82
2021/08/04 10:11:49;;;;;;;3.58;1.67;;;;;;;24.22;71.93;98814.91;4060768;86;21092;-82
2021/08/04 10:17:52;;;;;;;3.35;1.60;;;;;;;24.00;71.83;98816.53;4062687;86;21095;-82
2021/08/04 10:23:54;;;;;;;3.25;1.77;;;;;;;23.73;71.35;98813.73;4055250;86;21051;-81
2021/08/04 10:29:55;;;;;;;5.72;1.62;;;;;;;23.55;70.50;98814.38;4053017;85;21019;-82
2021/08/04 10:36:05;;;;;;;3.52;1.95;;;;;;;23.53;70.02;98815.45;4060722;86;21079;-82
2021/08/04 10:42:09;;;;;;;2.40;1.72;;;;;;;23.57;69.75;98821.03;4051433;86;21057;-81
2021/08/04 10:48:23;;;;;;;2.10;1.40;;;;;;;23.97;69.14;98830.05;4060511;86;21072;-81
2021/08/04 10:54:25;;;;;;;1.92;1.40;;;;;;;24.05;67.82;98824.29;4061024;86;21646;-83
2021/08/04 11:00:26;;;;;;;1.35;1.07;;;;;;;24.31;67.31;98814.88;4061099;86;21475;-82
2021/08/04 11:06:28;;;;;;;1.95;1.22;;;;;;;25.04;67.41;98811.94;4061853;86;21044;-82
2021/08/04 11:12:43;;;;;;;3.12;1.00;;;;;;;25.96;66.83;98816.34;3982811;86;21566;-82
2021/08/04 11:19:07;;;;;;;1.82;1.27;;;;;;;26.50;64.40;98808.74;3970678;87;21140;-82
2021/08/04 11:25:35;;;;;;;1.80;0.98;;;;;;;26.52;63.29;98806.85;3922005;88;21127;-83
2021/08/04 11:31:37;;;;;;;1.00;0.88;;;;;;;26.08;62.71;98813.28;3930326;87;21454;-82
2021/08/04 11:37:44;;;;;;;1.17;0.93;;;;;;;25.52;62.46;98813.48;3955433;87;21053;-82
2021/08/04 11:43:47;;;;;;;4.47;1.02;;;;;;;25.08;62.35;98817.34;4049262;85;21074;-82
2021/08/04 11:49:52;;;;;;;1.92;1.02;;;;;;;24.67;62.37;98814.02;4060024;86;21039;-82
2021/08/04 11:55:58;;;;;;;1.75;1.25;;;;;;;24.33;61.65;98820.78;4055309;86;21038;-82
2021/08/04 12:02:02;;;;;;;1.98;1.47;;;;;;;23.85;61.89;98809.98;4063070;86;20989;-82
2021/08/04 12:08:04;;;;;;;4.42;1.55;;;;;;;23.78;61.50;98808.13;4054981;86;21208;-83
2021/08/04 12:14:05;;;;;;;2.30;1.40;;;;;;;23.79;61.54;98797.89;4054681;86;21472;-82
2021/08/04 12:20:20;;;;;;;1.82;1.50;;;;;;;23.84;61.99;98792.28;4055888;86;21026;-83
2021/08/04 12:26:22;;;;;;;2.00;1.27;;;;;;;23.63;61.81;98791.86;4067805;86;21050;-82
2021/08/04 12:32:29;;;;;;;3.98;1.60;;;;;;;23.44;61.76;98793.89;4057185;86;21140;-81
2021/08/04 12:38:34;;;;;;;3.17;1.45;;;;;;;23.39;62.11;98787.52;4063459;86;21537;-84
2021/08/04 12:44:35;;;;;;;3.08;1.22;;;;;;;23.35;61.90;98778.50;4081825;85;21104;-82
2021/08/04 12:50:53;;;;;;;5.35;1.22;;;;;;;23.44;62.25;98772.16;4067179;85;21833;-81
2021/08/04 12:56:56;;;;;;;1.07;0.98;;;;;;;23.62;61.89;98771.52;4056498;86;21044;-82
2021/08/04 13:02:57;;;;;;;3.12;1.30;;;;;;;23.61;61.77;98760.80;4057323;86;21009;-83
2021/08/04 13:09:03;;;;;;;3.85;1.35;;;;;;;23.70;62.08;98762.97;4056338;86;21054;-82
2021/08/04 13:15:20;;;;;;;3.20;1.23;;;;;;;23.66;61.77;98747.61;4057865;86;21601;-82
2021/08/04 13:21:21;;;;;;;5.35;1.40;;;;;;;23.53;62.28;98738.01;4057663;86;21592;-83
2021/08/04 13:27:29;;;;;;;2.40;1.70;;;;;;;23.49;62.81;98753.38;4050325;86;21072;-82
2021/08/04 13:33:31;;;;;;;4.85;1.30;;;;;;;23.56;62.46;98762.22;4048974;86;21054;-82
2021/08/04 13:39:33;;;;;;;5.05;1.67;;;;;;;23.75;62.17;98757.37;4056279;86;20993;-81
2021/08/04 13:45:35;;;;;;;3.12;1.50;;;;;;;23.58;61.90;98754.15;4057655;86;21172;-82
2021/08/04 13:51:36;;;;;;;6.40;1.40;;;;;;;23.41;61.70;98747.95;4052069;86;21165;-82
2021/08/04 13:57:39;;;;;;;2.58;1.67;;;;;;;23.28;61.87;98741.13;4074470;84;197492;-81
2021/08/04 14:03:40;;;;;;;4.37;2.10;;;;;;;23.34;61.85;98749.65;4084589;85;21080;-82
2021/08/04 14:09:42;;;;;;;5.22;1.75;;;;;;;23.43;61.67;98740.64;4081048;85;21726;-82
2021/08/04 14:15:43;;;;;;;2.10;1.47;;;;;;;23.28;61.17;98743.92;4082916;85;21699;-83
2021/08/04 14:21:44;;;;;;;1.77;1.40;;;;;;;23.15;61.19;98752.42;4081190;84;21112;-82
2021/08/04 14:27:47;;;;;;;3.62;1.62;;;;;;;23.12;61.35;98749.78;4090325;85;22204;-82
2021/08/04 14:33:48;;;;;;;4.10;1.62;;;;;;;23.10;61.32;98753.03;4084788;85;21049;-82
2021/08/04 14:39:49;;;;;;;3.60;1.60;;;;;;;23.00;61.45;98754.89;4086709;85;21062;-83
2021/08/04 14:45:50;;;;;;;2.45;1.62;;;;;;;22.92;61.70;98767.59;4086970;85;20986;-82
2021/08/04 14:51:52;;;;;;;7.47;2.22;;;;;;;22.78;61.93;98762.00;4083792;85;21086;-82
2021/08/04 14:57:53;;;;;;;4.03;2.60;;;;;;;22.63;62.25;98771.42;4016264;86;21066;-83
2021/08/04 15:03:55;;;;;;;3.42;2.33;;;;;;;22.46;62.43;98771.46;4004789;86;21537;-82
2021/08/04 15:09:56;;;;;;;4.17;2.50;;;;;;;22.39;62.50;98772.55;3946870;87;21538;-82
2021/08/04 15:16:03;;;;;;;2.83;2.20;;;;;;;22.45;63.26;98775.50;3939000;88;21573;-82
2021/08/04 15:22:05;;;;;;;2.87;1.90;;;;;;;22.46;63.08;98772.25;3949665;87;21445;-83
2021/08/04 15:28:06;;;;;;;5.37;2.60;;;;;;;22.45;63.05;98777.68;3937498;88;21119;-82
2021/08/04 15:34:07;;;;;;;3.77;2.05;;;;;;;22.45;62.82;98783.86;3942838;88;21087;-82
2021/08/04 15:40:10;;;;;;;3.60;2.30;;;;;;;22.42;63.18;98776.42;3930457;88;21667;-83
2021/08/04 15:46:17;;;;;;;4.12;2.77;;;;;;;22.34;63.45;98772.35;3952241;88;21105;-81
2021/08/04 15:52:19;;;;;;;8.33;3.72;;;;;;;22.28;63.54;98772.19;3959834;87;21059;-82
2021/08/04 15:58:20;;;;;;;4.47;2.80;;;;;;;22.18;63.68;98767.80;3948093;87;21024;-82
2021/08/04 16:04:22;;;;;;;3.55;2.20;;;;;;;22.11;64.13;98751.97;3963530;87;21151;-85
2021/08/04 16:10:23;;;;;;;7.33;2.65;;;;;;;22.07;64.59;98754.89;3940834;88;21119;-85
2021/08/04 16:16:25;;;;;;;5.33;3.12;;;;;;;;;;3948633;87;21806;-82
2021/08/04 16:22:26;;;;;;;5.05;3.00;;;;;;;22.04;65.61;98741.88;4066729;85;21159;-83
2021/08/04 16:28:27;;;;;;;5.33;2.25;;;;;;;22.05;65.60;98745.44;4081090;85;21677;-82
2021/08/04 16:34:29;;;;;;;3.77;2.98;;;;;;;21.90;65.59;98743.81;4092230;85;21044;-83
2021/08/04 16:40:30;;;;;;;3.92;2.62;;;;;;;21.77;65.56;98752.11;4084651;85;21134;-83
2021/08/04 16:46:32;;;;;;;4.22;2.70;;;;;;;21.65;65.84;98751.70;4080188;85;21049;-83
2021/08/04 16:52:33;;;;;;;4.03;2.05;;;;;;;21.62;66.64;98756.78;4079917;85;21065;-83
2021/08/04 16:58:35;;;;;;;4.42;2.47;;;;;;;21.57;66.81;98760.75;4083261;85;21089;-83
2021/08/04 17:04:37;;;;;;;5.97;2.83;;;;;;;21.55;66.80;98760.42;4074112;85;21811;-82
2021/08/04 17:10:39;;;;;;;4.33;2.58;;;;;;;21.47;66.61;98761.30;4081664;85;21021;-82
2021/08/04 17:16:41;;;;;;;5.37;2.70;;;;;;;21.38;66.46;98761.84;4085858;85;21021;-83
2021/08/04 17:22:52;;;;;;;4.83;2.50;;;;;;;21.32;66.70;98768.63;4087372;85;21096;-82
2021/08/04 17:28:53;;;;;;;7.47;2.55;;;;;;;21.21;66.67;98759.87;4083044;85;21066;-82
2021/08/04 17:34:55;;;;;;;5.45;2.52;;;;;;;21.15;67.14;98760.89;4085680;85;20989;-82
2021/08/04 17:40:56;;;;;;;6.05;3.02;;;;;;;21.02;67.52;98763.72;3975201;82;10000336;-81
2021/08/04 17:46:57;;;;;;;6.28;3.00;;;;;;;20.97;67.81;98759.34;4079808;85;21018;-82
2021/08/04 17:52:59;;;;;;;5.45;2.42;;;;;;;21.03;67.81;98757.55;3983455;86;21075;-82
2021/08/04 17:59:00;;;;;;;5.80;2.95;;;;;;;21.03;67.76;98761.09;3990346;87;21097;-82
2021/08/04 18:05:02;;;;;;;6.30;3.25;;;;;;;20.91;67.86;98759.70;4002650;86;21004;-82
2021/08/04 18:11:03;;;;;;;4.50;3.45;;;;;;;20.74;68.62;98765.25;4086322;85;21050;-82
2021/08/04 18:17:05;;;;;;;5.78;3.75;;;;;;;20.61;69.21;98761.73;4138856;84;20990;-82
2021/08/04 18:23:09;;;;;;;5.35;4.00;;;;;;;20.55;69.52;98768.45;4055002;85;21042;-82
2021/08/04 18:29:10;;;;;;;5.70;4.20;;;;;;;20.61;70.00;98779.17;4089330;85;21001;-82
2021/08/04 18:35:12;;;;;;;7.45;4.42;;;;;;;20.55;70.37;98776.04;4099468;86;21038;-82
2021/08/04 18:41:15;;;;;;;6.22;3.55;;;;;;;20.40;71.24;98779.88;4065402;85;21012;-82
2021/08/04 18:47:17;;;;;;;6.37;3.30;;;;;;;20.31;71.33;98789.50;4081235;85;21638;-82
2021/08/04 18:53:18;;;;;;;5.60;3.60;;;;;;;20.23;71.87;98791.70;4088458;85;21984;-85
2021/08/04 18:59:20;;;;;;;5.87;3.72;;;;;;;20.28;72.28;98789.61;4088496;85;21050;-84
2021/08/04 19:05:25;;;;;;;5.62;3.67;;;;;;;20.25;72.77;98794.03;4088889;85;21013;-82
2021/08/04 19:11:27;;;;;;;7.08;4.62;;;;;;;20.08;73.35;98795.33;3976650;84;10000530;-82
2021/08/04 19:17:28;;;;;;;11.90;5.53;;;;;;;19.86;74.18;98799.35;4084452;85;21129;-82
2021/08/04 19:23:30;;;;;;;11.20;5.83;;;;;;;19.86;74.53;98789.63;4085471;85;21057;-82
2021/08/04 19:29:31;;;;;;;9.88;5.35;;;;;;;19.82;74.61;98794.52;4094348;85;21014;-83
2021/08/04 19:35:32;;;;;;;11.08;4.42;;;;;;;19.78;75.18;98806.33;4091200;85;21026;-81
2021/08/04 19:41:35;;;;;;;8.30;4.55;;;;;;;19.84;75.22;98794.08;4081716;85;21526;-81
2021/08/04 19:47:36;;;;;;;7.58;4.78;;;;;;;19.80;75.67;98796.95;4089931;85;21013;-81
2021/08/04 19:53:39;;;;;;;7.42;4.17;;;;;;;19.83;75.79;98791.91;4083835;85;20975;-81
2021/08/04 19:59:40;;;;;;;8.68;4.58;;;;;;;19.76;75.91;98785.15;4085237;85;22064;-84
2021/08/04 20:05:42;;;;;;;9.53;5.08;;;;;;;19.72;76.07;98785.09;4082138;85;21064;-81
2021/08/04 20:11:43;;;;;;;8.88;4.15;;;;;;;19.59;76.18;98780.13;3954655;88;21519;-81
2021/08/04 20:17:45;;;;;;;6.85;4.22;;;;;;;19.53;76.40;98771.55;4093375;85;20982;-82
2021/08/04 20:23:47;;;;;;;5.78;4.10;;;;;;;19.40;76.45;98768.56;4073102;85;21014;-81
2021/08/04 20:29:49;;;;;;;6.83;3.62;;;;;;;19.34;76.62;98772.47;4089935;85;21003;-82
2021/08/04 20:35:50;;;;;;;5.53;4.08;;;;;;;19.40;77.03;98776.90;4088848;85;21053;-81
2021/08/04 20:41:51;;;;;;;9.10;4.33;;;;;;;19.39;77.03;98780.27;4087665;85;21172;-82
2021/08/04 20:47:53;;;;;;;7.40;4.30;;;;;;;19.32;77.25;98772.16;4089109;85;21609;-80
2021/08/04 20:53:54;;;;;;;7.03;4.53;;;;;;;19.25;77.83;98777.85;4088264;85;21033;-82
2021/08/04 20:59:55;;;;;;;8.43;5.05;;;;;;;19.18;78.04;98771.12;4085247;85;21022;-85
2021/08/04 21:05:56;;;;;;;9.30;4.50;;;;;;;19.08;78.16;98759.69;4079693;85;21546;-81
2021/08/04 21:11:58;;;;;;;10.50;4.87;;;;;;;18.96;79.02;98758.23;4082215;85;21526;-81
2021/08/04 21:17:59;;;;;;;5.80;4.53;;;;;;;18.99;79.12;98757.37;4114287;84;21061;-81
2021/08/04 21:24:01;;;;;;;5.85;4.12;;;;;;;19.03;79.07;98758.07;4086724;85;21010;-82
2021/08/04 21:30:04;;;;;;;6.42;4.08;;;;;;;18.97;79.28;98751.47;4092547;85;21069;-81
2021/08/04 21:36:05;;;;;;;10.32;4.10;;;;;;;18.90;79.45;98743.34;4083519;85;22014;-82
2021/08/04 21:42:07;;;;;;;8.40;4.30;;;;;;;18.85;79.45;98749.42;4079498;85;21045;-82
2021/08/04 21:48:08;;;;;;;6.75;4.33;;;;;;;18.85;80.02;98746.05;4092858;85;21065;-82
2021/08/04 21:54:10;;;;;;;5.50;4.20;;;;;;;18.88;80.03;98749.33;4081171;85;21089;-82
2021/08/04 22:00:15;;;;;;;9.53;4.05;;;;;;;18.89;80.12;98741.80;4085287;85;21017;-81
2021/08/04 22:06:16;;;;;;;8.00;4.62;;;;;;;18.77;80.33;98735.56;3992599;87;21136;-82
2021/08/04 22:12:18;;;;;;;7.00;3.80;;;;;;;18.66;80.52;98730.30;3940333;88;21107;-83
2021/08/04 22:18:19;;;;;;;10.23;4.65;;;;;;;18.58;80.51;98722.77;4086991;85;21644;-82
2021/08/04 22:24:21;;;;;;;7.10;4.85;;;;;;;18.43;80.92;98718.77;4079534;85;22441;-82
2021/08/04 22:30:23;;;;;;;7.83;4.45;;;;;;;18.44;81.36;98711.25;4086754;85;21160;-82
2021/08/04 22:36:24;;;;;;;8.40;4.80;;;;;;;18.46;81.52;98706.82;4084069;85;21093;-82
2021/08/04 22:42:26;;;;;;;7.72;4.40;;;;;;;18.49;81.72;98701.03;4091479;85;21069;-82
2021/08/04 22:48:27;;;;;;;6.28;4.67;;;;;;;18.45;82.08;98694.19;4087965;85;22285;-81
2021/08/04 22:54:28;;;;;;;9.08;4.40;;;;;;;18.45;82.22;98691.41;4084284;85;21628;-82
2021/08/04 23:00:29;;;;;;;7.72;4.90;;;;;;;18.37;82.58;98678.91;4077950;85;21089;-82
2021/08/04 23:06:31;;;;;;;6.10;4.53;;;;;;;18.28;82.87;98673.21;4079189;85;21089;-82
2021/08/04 23:12:32;;;;;;;8.75;5.12;;;;;;;18.32;83.14;98663.43;4083586;85;21120;-82
2021/08/04 23:18:33;;;;;;;6.62;4.60;;;;;;;18.36;83.37;98661.34;4091316;85;21100;-82
2021/08/04 23:24:34;;;;;;;8.85;4.78;;;;;;;18.33;83.53;98656.67;4081107;85;21085;-82
2021/08/04 23:30:36;;;;;;;10.80;5.25;;;;;;;18.24;83.54;98640.67;4096134;85;21033;-84
2021/08/04 23:36:37;;;;;;;8.98;4.60;;;;;;;18.18;83.85;98634.70;4085103;85;21062;-82
2021/08/04 23:42:38;;;;;;;6.58;5.15;;;;;;;18.07;84.21;98625.25;4077830;85;21065;-82
2021/08/04 23:48:39;;;;;;;8.15;5.12;;;;;;;18.01;84.51;98617.91;4092856;85;21092;-82
2021/08/04 23:54:41;;;;;;;6.17;4.45;;;;;;;17.97;84.85;98619.98;4077245;85;21018;-81
